Time;durP1;ratioP1;P1;durP2;ratioP2;P2;SDS_P1;SDS_P2;PMS_P1;PMS_P2;Temp;Humidity;BMP_temperature;BMP_pressure;BME280_temperature;BME280_humidity;BME280_pressure;Samples;Min_cycle;Max_cycle;Signal;HPM_P1;HPM_P2
2024/02/25 00:01:25;;;;;;;6.45;2.03;;;;;;;5.64;80.07;100176.53;6096908;23;20544;-69
2024/02/25 00:03:55;;;;;;;1.08;0.88;;;;;;;5.51;80.47;100182.59;6096995;23;20194;-69
2024/02/25 00:06:24;;;;;;;1.40;0.85;;;;;;;5.79;79.58;100179.19;6071435;23;20170;-68
2024/02/25 00:08:53;;;;;;;1.02;0.90;;;;;;;5.67;80.11;100187.72;6097840;23;20190;-71
2024/02/25 00:11:22;;;;;;;1.52;1.20;;;;;;;5.68;80.73;100188.56;6097167;23;20163;-67
2024/02/25 00:13:51;;;;;;;1.35;1.25;;;;;;;5.68;79.48;100193.94;6097101;23;20174;-70
2024/02/25 00:16:21;;;;;;;1.20;0.80;;;;;;;5.58;80.35;100193.38;6097144;23;20167;-67
2024/02/25 00:18:51;;;;;;;1.60;0.88;;;;;;;5.54;80.19;100179.53;6101024;23;20652;-67
2024/02/25 00:21:21;;;;;;;1.38;0.98;;;;;;;5.44;80.27;100191.56;6075069;23;20171;-69
2024/02/25 00:23:50;;;;;;;1.58;1.33;;;;;;;5.39;80.44;100177.84;6099473;23;20175;-67
2024/02/25 00:26:19;;;;;;;11.23;1.15;;;;;;;5.67;80.68;100187.72;6096578;23;20198;-68
2024/02/25 00:28:48;;;;;;;1.00;0.80;;;;;;;5.58;80.27;100186.19;6096304;23;20198;-67
2024/02/25 00:31:17;;;;;;;1.23;0.70;;;;;;;5.55;79.78;100189.25;6096602;23;20171;-67
2024/02/25 00:33:46;;;;;;;1.52;1.20;;;;;;;5.61;79.41;100193.03;6097783;23;20679;-70
2024/02/25 00:36:15;;;;;;;1.25;1.15;;;;;;;5.51;80.66;100187.13;6098429;23;20152;-68
2024/02/25 00:38:46;;;;;;;1.33;1.23;;;;;;;5.52;79.39;100191.44;6099006;23;20188;-68
2024/02/25 00:41:14;;;;;;;1.95;0.90;;;;;;;5.50;80.05;100186.28;6098725;23;20152;-67
2024/02/25 00:43:43;;;;;;;1.00;0.90;;;;;;;5.57;78.59;100195.25;6098705;23;20175;-71
2024/02/25 00:46:12;;;;;;;0.90;0.60;;;;;;;5.45;78.82;100183.31;6099112;23;20246;-69
2024/02/25 00:48:41;;;;;;;0.90;0.60;;;;;;;5.45;79.59;100196.75;6098675;23;20203;-69
2024/02/25 00:51:10;;;;;;;1.10;0.70;;;;;;;5.43;79.05;100200.63;6097827;23;20679;-69
2024/02/25 00:53:39;;;;;;;2.25;1.60;;;;;;;5.63;80.01;100207.91;6097891;23;20589;-67
2024/02/25 00:56:10;;;;;;;1.30;0.90;;;;;;;5.69;78.17;100201.81;6071499;23;20178;-69
2024/02/25 00:58:39;;;;;;;2.17;0.80;;;;;;;5.69;78.19;100200.97;6096634;23;20179;-69
2024/02/25 01:01:14;;;;;;;0.90;0.60;;;;;;;5.57;78.24;100192.56;6096585;23;20172;-68
2024/02/25 01:03:44;;;;;;;2.47;0.80;;;;;;;5.51;79.22;100196.00;6071258;23;20612;-67
2024/02/25 01:06:13;;;;;;;1.10;0.90;;;;;;;5.53;79.41;100193.94;6097101;23;20542;-68
2024/02/25 01:08:43;;;;;;;1.20;1.02;;;;;;;5.58;79.11;100194.22;6098106;23;20184;-67
2024/02/25 01:11:13;;;;;;;0.90;0.70;;;;;;;5.61;79.61;100196.56;6097889;23;20499;-68
2024/02/25 01:13:42;;;;;;;1.40;1.00;;;;;;;5.52;79.83;100192.28;6097777;23;20227;-67
2024/02/25 01:16:11;;;;;;;1.00;0.63;;;;;;;5.56;80.44;100184.72;6097978;23;20477;-67
2024/02/25 01:18:40;;;;;;;3.70;1.35;;;;;;;5.46;80.44;100185.00;6097300;23;20194;-67
2024/02/25 01:21:09;;;;;;;0.90;0.70;;;;;;;5.46;80.39;100185.00;6097570;23;20168;-67
2024/02/25 01:23:38;;;;;;;1.02;0.70;;;;;;;5.35;80.21;100177.41;6097665;23;20175;-67
2024/02/25 01:26:07;;;;;;;1.20;0.80;;;;;;;5.51;80.35;100185.28;6097733;23;20180;-68
2024/02/25 01:28:41;;;;;;;1.15;1.05;;;;;;;5.45;80.60;100188.69;6097811;23;20195;-67
2024/02/25 01:31:10;;;;;;;1.02;0.60;;;;;;;5.44;80.48;100178.97;6097369;23;20152;-69
2024/02/25 01:33:39;;;;;;;0.90;0.70;;;;;;;5.36;80.42;100179.09;6097603;23;20648;-69
2024/02/25 01:36:08;;;;;;;4.40;0.93;;;;;;;5.25;81.38;100176.84;6097431;23;20186;-68
2024/02/25 01:38:37;;;;;;;2.03;1.52;;;;;;;5.24;81.96;100177.88;6097470;23;20687;-67
2024/02/25 01:41:06;;;;;;;1.30;1.00;;;;;;;5.26;81.94;100178.53;6097619;23;20147;-68
2024/02/25 01:43:40;;;;;;;2.15;1.08;;;;;;;5.19;81.64;100189.16;6096971;23;20569;-69
2024/02/25 01:46:09;;;;;;;0.80;0.60;;;;;;;5.13;82.54;100178.34;6097369;23;20571;-67
2024/02/25 01:48:38;;;;;;;0.90;0.80;;;;;;;5.13;83.30;100172.97;6097318;23;20231;-67
2024/02/25 01:51:07;;;;;;;1.40;0.95;;;;;;;5.18;82.42;100184.00;6097517;23;20167;-68
2024/02/25 01:53:36;;;;;;;3.00;1.38;;;;;;;5.14;82.57;100180.81;6097084;23;20174;-69
2024/02/25 01:56:07;;;;;;;1.00;0.60;;;;;;;4.85;83.32;100186.16;6097104;23;20485;-70
2024/02/25 01:58:37;;;;;;;1.60;0.85;;;;;;;4.73;84.84;100176.91;6097230;23;20197;-69
2024/02/25 02:01:09;;;;;;;1.20;0.90;;;;;;;4.78;84.89;100180.72;6097140;23;20206;-67
2024/02/25 02:03:38;;;;;;;6.68;1.40;;;;;;;4.85;84.16;100169.22;6071488;23;20171;-68
2024/02/25 02:06:08;;;;;;;1.65;0.80;;;;;;;4.85;84.79;100174.59;6096731;23;20185;-68
2024/02/25 02:08:38;;;;;;;1.50;1.40;;;;;;;4.77;85.33;100173.66;6097074;23;20246;-68
2024/02/25 02:11:16;;;;;;;1.40;0.90;;;;;;;5.11;84.90;100175.00;6097627;23;20161;-67
2024/02/25 02:13:47;;;;;;;0.90;0.73;;;;;;;4.94;84.38;100173.53;6099333;23;20158;-68
2024/02/25 02:16:17;;;;;;;0.80;0.60;;;;;;;4.84;85.38;100167.59;6102189;23;20483;-67
2024/02/25 02:18:47;;;;;;;2.20;1.13;;;;;;;4.86;85.97;100165.53;6102195;23;20574;-68
2024/02/25 02:21:19;;;;;;;1.00;0.60;;;;;;;4.93;85.83;100166.50;6100140;23;20151;-68
2024/02/25 02:23:48;;;;;;;1.58;1.45;;;;;;;4.84;85.55;100168.44;6098573;23;20245;-67
2024/02/25 02:26:18;;;;;;;1.33;1.00;;;;;;;4.82;86.24;100171.28;6097954;23;20172;-68
2024/02/25 02:28:46;;;;;;;1.00;0.90;;;;;;;4.72;86.07;100172.53;6098088;23;20525;-67
2024/02/25 02:31:18;;;;;;;2.03;1.17;;;;;;;4.65;87.13;100171.59;6098002;23;20159;-69
2024/02/25 02:33:49;;;;;;;1.20;1.10;;;;;;;4.66;87.45;100166.06;6097968;23;20146;-67
2024/02/25 02:36:21;;;;;;;1.45;0.90;;;;;;;4.48;88.04;100167.41;6097823;23;20488;-68
2024/02/25 02:38:49;;;;;;;2.15;1.15;;;;;;;4.43;88.40;100162.59;6097549;23;20210;-65
2024/02/25 02:41:23;;;;;;;2.38;0.70;;;;;;;4.55;88.16;100157.66;6101195;23;20171;-68
2024/02/25 02:43:52;;;;;;;0.80;0.50;;;;;;;4.53;89.25;100160.50;6100721;23;20217;-68
2024/02/25 02:46:21;;;;;;;1.50;0.82;;;;;;;4.37;89.20;100155.28;6101093;23;20182;-68
2024/02/25 02:48:50;;;;;;;1.42;0.82;;;;;;;4.45;89.79;100155.22;6100348;23;20201;-67
2024/02/25 02:51:20;;;;;;;1.30;0.90;;;;;;;4.34;90.03;100161.00;6101833;23;20198;-68
2024/02/25 02:53:49;;;;;;;1.50;1.23;;;;;;;4.26;90.37;100153.03;6100326;23;20166;-67
2024/02/25 02:56:18;;;;;;;1.08;0.95;;;;;;;4.17;91.44;100154.09;6100868;23;20173;-68
2024/02/25 02:58:49;;;;;;;1.00;0.63;;;;;;;4.41;91.40;100156.56;6099314;23;20193;-68
2024/02/25 03:01:18;;;;;;;2.70;1.35;;;;;;;4.24;91.55;100157.72;6098413;23;20191;-67
2024/02/25 03:03:47;;;;;;;1.48;1.00;;;;;;;4.16;91.88;100150.59;6097707;23;20170;-67
2024/02/25 03:06:17;;;;;;;1.20;1.10;;;;;;;4.03;92.09;100152.19;6097247;23;20197;-68
2024/02/25 03:08:48;;;;;;;1.42;1.25;;;;;;;4.05;92.69;100151.00;6097360;23;20198;-67
2024/02/25 03:11:17;;;;;;;3.88;1.58;;;;;;;4.01;93.01;100144.34;6097679;23;20153;-67
2024/02/25 03:13:47;;;;;;;1.20;0.75;;;;;;;4.23;92.12;100150.69;6097204;23;20227;-66
2024/02/25 03:16:15;;;;;;;1.33;1.13;;;;;;;4.27;92.23;100143.97;6097874;23;20496;-67
2024/02/25 03:18:44;;;;;;;1.10;0.93;;;;;;;4.27;93.00;100152.00;6098657;23;20214;-66
2024/02/25 03:21:14;;;;;;;1.10;0.90;;;;;;;4.32;92.19;100152.28;6098753;23;20196;-68
2024/02/25 03:23:43;;;;;;;1.27;1.17;;;;;;;4.26;92.59;100147.69;6098174;23;20163;-67
2024/02/25 03:26:16;;;;;;;1.67;1.45;;;;;;;4.19;92.07;100144.03;6097655;23;20242;-70
2024/02/25 03:28:45;;;;;;;0.90;0.80;;;;;;;4.37;93.26;100149.91;6097777;23;20193;-67
2024/02/25 03:31:17;;;;;;;2.20;1.13;;;;;;;4.57;92.20;100143.03;6096595;23;20214;-68
2024/02/25 03:33:49;;;;;;;1.08;0.98;;;;;;;4.30;92.38;100146.31;6096871;23;20194;-67
2024/02/25 03:36:19;;;;;;;1.42;1.33;;;;;;;4.18;93.38;100145.03;6096257;23;20191;-67
2024/02/25 03:38:48;;;;;;;1.20;0.80;;;;;;;4.43;92.77;100134.97;6096207;23;20208;-67
2024/02/25 03:41:19;;;;;;;1.20;0.80;;;;;;;4.06;92.87;100141.13;6096289;23;20658;-68
2024/02/25 03:43:48;;;;;;;1.10;0.95;;;;;;;4.28;93.33;100141.13;6096274;23;20153;-67
2024/02/25 03:46:16;;;;;;;2.08;1.40;;;;;;;4.11;94.20;100134.25;6095772;23;20576;-67
2024/02/25 03:48:45;;;;;;;2.25;1.88;;;;;;;4.05;94.80;100136.78;6095650;23;20317;-66
2024/02/25 03:51:15;;;;;;;2.50;2.30;;;;;;;4.18;95.04;100132.50;6096121;23;20159;-68
2024/02/25 03:53:44;;;;;;;2.00;1.45;;;;;;;4.38;94.32;100135.50;6098628;23;20163;-68
2024/02/25 03:56:13;;;;;;;1.10;1.00;;;;;;;4.30;93.29;100144.47;6096620;23;20167;-67
2024/02/25 03:58:44;;;;;;;1.88;0.82;;;;;;;3.98;94.30;100139.31;6096603;23;20193;-67
2024/02/25 04:01:13;;;;;;;0.85;0.60;;;;;;;3.84;95.38;100137.41;6096750;23;20545;-68
2024/02/25 04:03:42;;;;;;;0.90;0.70;;;;;;;3.82;95.89;100134.09;6096314;23;20177;-68
2024/02/25 04:06:11;;;;;;;2.17;1.42;;;;;;;4.00;96.47;100141.84;6095889;23;20201;-68
2024/02/25 04:08:40;;;;;;;1.15;0.95;;;;;;;4.05;95.80;100144.81;6095913;23;20186;-68
2024/02/25 04:11:09;;;;;;;1.50;1.40;;;;;;;3.99;95.54;100143.69;6096063;23;20175;-68
2024/02/25 04:13:38;;;;;;;1.15;1.05;;;;;;;3.81;96.65;100141.28;6098749;23;20650;-68
2024/02/25 04:16:09;;;;;;;1.67;1.20;;;;;;;4.10;96.64;100137.91;6099170;23;20149;-66
2024/02/25 04:18:37;;;;;;;4.85;0.80;;;;;;;4.16;96.48;100136.38;6098760;23;20189;-68
2024/02/25 04:21:06;;;;;;;2.25;1.17;;;;;;;3.95;96.61;100139.69;6097405;23;20175;-69
2024/02/25 04:23:35;;;;;;;2.65;1.17;;;;;;;3.85;97.68;100137.25;6070380;23;20167;-67
2024/02/25 04:26:04;;;;;;;1.75;1.15;;;;;;;3.94;97.84;100138.84;6096132;23;20252;-68
2024/02/25 04:28:33;;;;;;;4.32;1.92;;;;;;;3.96;98.03;100136.00;6096727;23;20512;-68
2024/02/25 04:31:02;;;;;;;1.58;1.23;;;;;;;3.87;98.64;100137.09;6096311;23;20493;-68
2024/02/25 04:33:33;;;;;;;2.50;1.45;;;;;;;3.99;98.85;100142.84;6096463;23;20161;-67
2024/02/25 04:36:02;;;;;;;2.15;1.35;;;;;;;3.89;98.06;100132.38;6099751;23;20594;-67
2024/02/25 04:38:31;;;;;;;1.75;1.30;;;;;;;3.80;99.05;100141.47;6097943;23;20195;-68
2024/02/25 04:41:02;;;;;;;1.63;1.17;;;;;;;3.83;98.95;100136.59;6097539;23;20170;-68
2024/02/25 04:43:31;;;;;;;3.28;1.27;;;;;;;3.89;100.00;100137.72;6097845;23;20158;-67
2024/02/25 04:46:00;;;;;;;1.00;0.80;;;;;;;3.76;99.90;100127.63;6098877;23;20164;-69
2024/02/25 04:48:29;;;;;;;2.08;1.88;;;;;;;3.76;100.00;100135.63;6098286;23;20253;-66
2024/02/25 04:51:01;;;;;;;1.27;1.17;;;;;;;3.82;100.00;100140.28;6097665;23;20251;-66
2024/02/25 04:53:30;;;;;;;1.60;1.15;;;;;;;3.68;100.00;100138.34;6098287;23;20635;-68
2024/02/25 04:56:01;;;;;;;3.45;2.15;;;;;;;3.88;100.00;100138.72;6098382;23;20177;-67
2024/02/25 04:58:30;;;;;;;1.10;0.80;;;;;;;3.81;100.00;100132.44;6098389;23;20567;-69
2024/02/25 05:00:59;;;;;;;2.38;1.67;;;;;;;3.72;100.00;100146.88;6072376;23;20183;-67
2024/02/25 05:03:28;;;;;;;1.27;1.08;;;;;;;3.45;100.00;100140.16;6098141;23;20648;-65
2024/02/25 05:05:57;;;;;;;2.22;1.58;;;;;;;3.51;100.00;100147.47;6097837;23;20620;-66
2024/02/25 05:08:27;;;;;;;6.53;1.85;;;;;;;3.71;100.00;100146.03;6097846;23;20195;-67
2024/02/25 05:10:56;;;;;;;1.23;1.02;;;;;;;3.58;100.00;100145.78;6098171;23;20156;-68
2024/02/25 05:13:25;;;;;;;1.42;1.05;;;;;;;3.71;100.00;100138.00;6098088;23;20158;-67
2024/02/25 05:15:55;;;;;;;1.70;1.60;;;;;;;3.56;100.00;100134.41;6097949;23;20165;-67
2024/02/25 05:18:27;;;;;;;1.15;0.93;;;;;;;3.45;100.00;100132.13;6097835;23;20181;-67
2024/02/25 05:20:56;;;;;;;1.33;0.90;;;;;;;3.62;100.00;100135.56;6097775;23;20602;-68
2024/02/25 05:23:26;;;;;;;6.03;2.22;;;;;;;3.54;100.00;100131.06;6098379;23;20717;-66
2024/02/25 05:25:56;;;;;;;2.40;1.55;;;;;;;3.59;100.00;100138.56;6098349;23;20206;-67
2024/02/25 05:28:25;;;;;;;0.90;0.70;;;;;;;3.48;100.00;100145.16;6098232;23;20665;-68
2024/02/25 05:30:53;;;;;;;2.17;1.10;;;;;;;3.52;100.00;100146.47;6098144;23;20168;-67
2024/02/25 05:33:23;;;;;;;2.55;2.05;;;;;;;3.38;100.00;100144.53;6098007;23;20189;-66
2024/02/25 05:35:53;;;;;;;3.53;1.92;;;;;;;3.40;100.00;100145.19;6097664;23;20174;-66
2024/02/25 05:38:22;;;;;;;1.15;1.05;;;;;;;3.49;100.00;100138.78;6097845;23;20186;-66
2024/02/25 05:40:53;;;;;;;2.17;0.98;;;;;;;3.34;100.00;100145.91;6098180;23;20457;-68
2024/02/25 05:43:22;;;;;;;1.25;1.15;;;;;;;3.37;100.00;100142.88;6097777;23;20236;-66
2024/02/25 05:45:51;;;;;;;1.00;0.90;;;;;;;3.47;100.00;100148.84;6100163;23;20217;-69
2024/02/25 05:48:20;;;;;;;1.08;0.98;;;;;;;3.51;100.00;100150.16;6098821;23;20214;-70
2024/02/25 05:50:49;;;;;;;2.30;1.27;;;;;;;3.61;100.00;100145.44;6099313;23;20166;-69
2024/02/25 05:53:18;;;;;;;1.13;0.70;;;;;;;3.44;100.00;100149.16;6098245;23;20228;-68
2024/02/25 05:55:47;;;;;;;0.90;0.70;;;;;;;3.26;100.00;100153.94;6097859;23;20497;-68
2024/02/25 05:58:18;;;;;;;1.42;1.20;;;;;;;3.49;100.00;100144.13;6098336;23;20184;-68
2024/02/25 06:00:47;;;;;;;3.13;2.92;;;;;;;3.46;100.00;100155.19;6098257;23;20602;-68
2024/02/25 06:03:16;;;;;;;1.67;1.58;;;;;;;3.33;100.00;100155.75;6098432;23;20168;-67
2024/02/25 06:05:45;;;;;;;3.92;2.20;;;;;;;3.15;100.00;100151.66;6097652;23;20216;-67
2024/02/25 06:08:15;;;;;;;3.00;2.22;;;;;;;3.27;100.00;100155.59;6098249;23;20206;-68
2024/02/25 06:10:44;;;;;;;1.15;1.00;;;;;;;3.21;100.00;100161.63;6098172;23;20191;-68
2024/02/25 06:13:13;;;;;;;8.85;1.92;;;;;;;3.17;100.00;100154.97;6098962;23;20170;-67
2024/02/25 06:15:43;;;;;;;1.70;1.45;;;;;;;3.25;100.00;100149.59;6099191;23;20248;-69
2024/02/25 06:18:12;;;;;;;2.42;1.20;;;;;;;3.41;100.00;100153.03;6099642;23;20583;-68
2024/02/25 06:20:41;;;;;;;1.10;0.93;;;;;;;3.35;100.00;100159.06;6099656;23;20229;-67
2024/02/25 06:23:10;;;;;;;1.38;1.20;;;;;;;3.43;100.00;100153.72;6098088;23;20181;-68
2024/02/25 06:25:39;;;;;;;1.20;0.90;;;;;;;3.41;100.00;100157.56;6097846;23;20172;-68
2024/02/25 06:28:08;;;;;;;1.33;1.00;;;;;;;3.32;100.00;100150.56;6072479;23;20228;-68
2024/02/25 06:30:37;;;;;;;0.90;0.70;;;;;;;3.21;100.00;100141.09;6098106;23;20168;-68
2024/02/25 06:33:07;;;;;;;0.95;0.80;;;;;;;3.31;100.00;100147.06;6098217;23;20203;-69
2024/02/25 06:35:37;;;;;;;2.45;1.50;;;;;;;3.38;100.00;100147.22;6103767;23;20159;-69
2024/02/25 06:38:06;;;;;;;1.20;1.00;;;;;;;3.31;100.00;100149.75;6101521;23;20297;-67
2024/02/25 06:40:35;;;;;;;2.72;1.40;;;;;;;3.34;100.00;100153.91;6098766;23;20164;-68
2024/02/25 06:43:08;;;;;;;21.17;2.67;;;;;;;3.58;100.00;100153.81;6097700;23;20223;-68
2024/02/25 06:45:37;;;;;;;3.38;2.10;;;;;;;3.59;100.00;100144.75;6098349;23;20300;-68
2024/02/25 06:48:08;;;;;;;1.75;1.58;;;;;;;3.50;100.00;100140.47;6097799;23;20592;-68
2024/02/25 06:50:37;;;;;;;2.33;2.13;;;;;;;3.74;100.00;100144.84;6098541;23;20154;-67
2024/02/25 06:53:06;;;;;;;1.48;1.38;;;;;;;3.77;100.00;100142.66;6098472;23;20165;-69
2024/02/25 06:55:35;;;;;;;1.70;1.60;;;;;;;3.69;100.00;100150.72;6098515;23;20160;-68
2024/02/25 06:58:04;;;;;;;4.85;3.38;;;;;;;3.75;100.00;100142.00;6097712;23;20153;-68
2024/02/25 07:00:35;;;;;;;1.67;1.58;;;;;;;3.65;100.00;100144.06;6097461;23;20224;-68
2024/02/25 07:03:07;;;;;;;1.38;1.17;;;;;;;3.80;100.00;100141.47;6071701;23;20170;-67
2024/02/25 07:05:36;;;;;;;1.48;1.38;;;;;;;3.79;100.00;100139.78;6097539;23;20150;-68
2024/02/25 07:08:06;;;;;;;1.70;1.30;;;;;;;3.71;100.00;100143.38;6097431;23;20200;-67
2024/02/25 07:10:35;;;;;;;1.48;1.02;;;;;;;3.75;100.00;100152.69;6097197;23;20690;-68
2024/02/25 07:13:04;;;;;;;1.83;1.20;;;;;;;3.90;100.00;100150.94;6097353;23;20168;-69
2024/02/25 07:15:33;;;;;;;1.23;1.08;;;;;;;3.84;100.00;100143.59;6097297;23;20199;-68
2024/02/25 07:18:02;;;;;;;1.05;0.95;;;;;;;3.97;100.00;100145.69;6097365;23;20173;-69
2024/02/25 07:20:33;;;;;;;1.85;1.75;;;;;;;4.06;98.92;100141.13;6097269;23;20181;-68
2024/02/25 07:23:02;;;;;;;2.55;1.75;;;;;;;4.11;99.00;100138.75;6097361;23;20165;-67
2024/02/25 07:25:31;;;;;;;3.88;1.92;;;;;;;4.01;99.19;100143.50;6097209;23;20223;-67
2024/02/25 07:28:00;;;;;;;1.40;0.93;;;;;;;4.06;99.36;100151.84;6096684;23;20512;-69
2024/02/25 07:30:29;;;;;;;1.48;1.35;;;;;;;4.06;99.08;100146.50;6096414;23;20194;-68
2024/02/25 07:32:58;;;;;;;1.80;1.70;;;;;;;4.17;99.51;100146.06;6096584;23;20193;-68
2024/02/25 07:35:28;;;;;;;4.78;2.00;;;;;;;4.40;98.60;100138.03;6096865;23;20159;-68
2024/02/25 07:37:59;;;;;;;2.35;1.48;;;;;;;4.50;96.41;100144.78;6096667;23;20225;-68
2024/02/25 07:40:27;;;;;;;2.35;1.67;;;;;;;4.39;96.50;100147.91;6096361;23;20592;-69
2024/02/25 07:42:56;;;;;;;1.20;0.95;;;;;;;4.28;96.78;100156.34;6096548;23;20177;-67
2024/02/25 07:45:26;;;;;;;1.45;1.00;;;;;;;4.33;97.18;100159.31;6096897;23;20182;-68
2024/02/25 07:47:55;;;;;;;4.18;1.25;;;;;;;4.31;96.72;100156.81;6096079;23;20639;-67
2024/02/25 07:50:24;;;;;;;2.55;1.92;;;;;;;4.31;96.77;100155.97;6096284;23;20159;-67
2024/02/25 07:52:54;;;;;;;2.40;1.50;;;;;;;4.31;96.41;100150.63;6070938;23;20178;-66
2024/02/25 07:55:25;;;;;;;2.30;1.42;;;;;;;4.30;97.09;100160.53;6096933;23;20217;-65
2024/02/25 07:57:54;;;;;;;1.70;1.60;;;;;;;4.47;95.86;100161.22;6097539;23;20489;-67
2024/02/25 08:00:23;;;;;;;1.17;0.98;;;;;;;4.49;95.31;100158.38;6097040;23;20171;-66
2024/02/25 08:02:52;;;;;;;3.33;1.23;;;;;;;4.74;94.29;100157.94;6096392;23;20173;-68
2024/02/25 08:05:25;;;;;;;1.63;1.25;;;;;;;4.70;93.78;100151.28;6096605;23;20484;-67
2024/02/25 08:07:54;;;;;;;2.60;1.58;;;;;;;4.74;93.57;100146.41;6096219;23;20182;-68
2024/02/25 08:10:25;;;;;;;1.85;1.23;;;;;;;4.92;92.87;100143.38;6098412;23;20203;-66
2024/02/25 08:12:55;;;;;;;2.00;1.80;;;;;;;5.05;91.94;100144.38;6097565;23;20157;-68
2024/02/25 08:15:23;;;;;;;1.65;1.42;;;;;;;5.00;91.54;100137.91;6098361;23;20486;-67
2024/02/25 08:17:52;;;;;;;3.35;1.98;;;;;;;4.92;92.35;100133.47;6098630;23;20177;-68
2024/02/25 08:20:21;;;;;;;1.10;1.00;;;;;;;5.13;90.84;100130.06;6098192;23;20233;-67
2024/02/25 08:22:50;;;;;;;2.22;1.13;;;;;;;5.04;91.27;100131.16;6098152;23;20191;-68
2024/02/25 08:25:20;;;;;;;1.83;1.17;;;;;;;5.09;91.09;100134.94;6098320;23;20222;-67
2024/02/25 08:27:50;;;;;;;2.22;0.88;;;;;;;5.18;90.29;100133.03;6098075;23;20161;-67
2024/02/25 08:30:20;;;;;;;1.20;0.80;;;;;;;5.17;90.53;100126.00;6097976;23;20643;-69
2024/02/25 08:32:49;;;;;;;1.88;1.48;;;;;;;5.33;89.51;100128.47;6098321;23;20158;-68
2024/02/25 08:35:18;;;;;;;5.13;2.25;;;;;;;5.40;89.00;100125.88;6098324;23;20265;-67
2024/02/25 08:37:47;;;;;;;1.33;1.05;;;;;;;5.37;89.23;100121.72;6099009;23;20166;-67
2024/02/25 08:40:20;;;;;;;1.13;1.00;;;;;;;5.42;89.56;100118.47;6098241;23;20167;-68
2024/02/25 08:42:51;;;;;;;1.20;1.10;;;;;;;5.61;87.35;100134.81;6103258;23;20147;-67
2024/02/25 08:45:20;;;;;;;1.10;1.00;;;;;;;5.62;87.48;100125.72;6104225;23;20235;-67
2024/02/25 08:47:49;;;;;;;1.90;1.08;;;;;;;5.77;87.42;100122.16;6098854;23;20171;-68
2024/02/25 08:50:18;;;;;;;1.25;1.15;;;;;;;5.86;87.05;100115.66;6098509;23;20250;-67
2024/02/25 08:52:47;;;;;;;2.55;1.60;;;;;;;6.05;85.75;100115.09;6098096;23;20172;-68
2024/02/25 08:55:16;;;;;;;1.65;1.42;;;;;;;6.20;84.54;100113.13;6097996;23;20167;-68
2024/02/25 08:57:45;;;;;;;1.65;1.08;;;;;;;6.24;84.56;100108.22;6098083;23;20218;-67
2024/02/25 09:00:17;;;;;;;2.28;1.20;;;;;;;6.33;83.89;100102.53;6097663;23;20164;-66
2024/02/25 09:02:46;;;;;;;2.55;1.35;;;;;;;6.60;82.51;100097.34;6097683;23;20163;-66
2024/02/25 09:05:15;;;;;;;2.17;0.93;;;;;;;6.74;80.25;100099.09;6097681;23;20203;-66
2024/02/25 09:07:44;;;;;;;1.05;0.80;;;;;;;6.76;80.38;100102.44;6098055;23;20162;-67
2024/02/25 09:10:18;;;;;;;2.00;1.05;;;;;;;6.83;80.17;100090.69;6097833;23;20474;-66
2024/02/25 09:12:48;;;;;;;2.95;1.30;;;;;;;7.00;79.82;100096.59;6097793;23;20447;-67
2024/02/25 09:15:19;;;;;;;1.13;0.75;;;;;;;7.15;77.81;100099.97;6097555;23;20238;-66
2024/02/25 09:17:49;;;;;;;2.10;1.60;;;;;;;7.41;77.23;100092.00;6097316;23;20155;-67
2024/02/25 09:20:18;;;;;;;1.38;1.00;;;;;;;7.61;75.89;100091.25;6097392;23;20152;-68
2024/02/25 09:22:47;;;;;;;1.48;1.10;;;;;;;7.83;74.36;100100.88;6098148;23;20187;-68
2024/02/25 09:25:16;;;;;;;2.17;1.98;;;;;;;7.88;72.73;100092.16;6097092;23;20168;-66
2024/02/25 09:27:45;;;;;;;1.20;0.95;;;;;;;7.95;72.96;100084.91;6096816;23;20167;-67
2024/02/25 09:30:15;;;;;;;4.07;1.55;;;;;;;8.20;72.38;100092.22;6097308;23;20207;-65
2024/02/25 09:32:45;;;;;;;0.90;0.60;;;;;;;8.37;71.64;100078.38;6097136;23;20155;-66
2024/02/25 09:35:15;;;;;;;1.20;0.95;;;;;;;8.33;70.60;100077.13;6097176;23;20156;-66
2024/02/25 09:37:47;;;;;;;3.25;1.58;;;;;;;8.44;70.10;100074.63;6097316;23;20155;-66
2024/02/25 09:40:17;;;;;;;1.83;1.67;;;;;;;8.39;69.97;100078.97;6097473;23;20160;-67
2024/02/25 09:42:46;;;;;;;1.42;0.98;;;;;;;8.54;70.42;100080.44;6071899;23;20171;-67
2024/02/25 09:45:22;;;;;;;2.08;1.33;;;;;;;8.67;69.84;100076.88;6097269;23;20166;-66
2024/02/25 09:47:53;;;;;;;1.63;1.52;;;;;;;8.82;70.45;100077.47;6097051;23;20162;-69
2024/02/25 09:50:23;;;;;;;2.60;1.63;;;;;;;8.93;68.78;100073.31;6097011;23;20203;-68
2024/02/25 09:52:54;;;;;;;2.15;1.40;;;;;;;9.00;68.43;100072.28;6096996;23;20357;-68
2024/02/25 09:55:23;;;;;;;1.52;1.10;;;;;;;9.31;67.37;100068.81;6096815;23;20159;-66
2024/02/25 09:57:52;;;;;;;1.95;1.63;;;;;;;9.31;66.54;100068.00;6097262;23;20682;-67
2024/02/25 10:00:21;;;;;;;2.03;1.65;;;;;;;9.31;66.16;100065.28;6097091;23;20195;-67
2024/02/25 10:02:52;;;;;;;1.63;1.30;;;;;;;9.42;65.81;100064.63;6071732;23;20172;-66
2024/02/25 10:05:21;;;;;;;1.15;1.02;;;;;;;9.48;65.34;100058.38;6096506;23;20376;-65
2024/02/25 10:08:03;;;;;;;3.63;1.30;;;;;;;9.55;64.38;100053.75;6096672;23;20159;-68
2024/02/25 10:10:33;;;;;;;2.50;1.13;;;;;;;9.70;64.39;100050.75;6096800;23;20450;-67
2024/02/25 10:13:04;;;;;;;1.80;1.50;;;;;;;9.91;63.63;100045.88;6096877;23;20391;-67
2024/02/25 10:15:33;;;;;;;2.20;1.35;;;;;;;9.92;63.76;100055.59;6097244;23;20435;-68
2024/02/25 10:18:04;;;;;;;2.53;1.57;;;;;;;10.07;62.82;100054.50;6097035;23;20854;-68
2024/02/25 10:20:33;;;;;;;4.70;4.23;;;;;;;10.17;62.29;100052.13;6098774;23;20411;-69
2024/02/25 10:23:09;;;;;;;2.43;1.50;;;;;;;10.24;62.80;100042.09;6098291;23;20395;-66
2024/02/25 10:25:41;;;;;;;1.37;1.10;;;;;;;10.26;61.79;100048.13;6096952;23;20787;-68
2024/02/25 10:28:14;;;;;;;1.93;0.80;;;;;;;10.28;60.99;100046.03;6096602;23;20411;-67
2024/02/25 10:30:59;;;;;;;4.50;1.43;;;;;;;10.47;59.91;100042.31;6096974;23;20416;-68
2024/02/25 10:33:29;;;;;;;1.30;0.90;;;;;;;10.63;59.65;100035.50;6097322;23;20375;-66
2024/02/25 10:36:09;;;;;;;2.00;1.63;;;;;;;10.68;58.77;100039.22;6096741;23;20347;-67
2024/02/25 10:38:39;;;;;;;1.80;1.07;;;;;;;10.44;59.23;100034.66;6096020;23;20386;-66
2024/02/25 10:41:10;;;;;;;1.73;1.63;;;;;;;10.50;59.63;100027.53;6096309;23;20848;-68
2024/02/25 10:43:40;;;;;;;1.20;1.00;;;;;;;10.83;59.91;100014.50;6096770;23;20411;-66
2024/02/25 10:46:23;;;;;;;3.00;1.50;;;;;;;11.08;58.38;100022.53;6097484;23;20351;-67
2024/02/25 10:48:54;;;;;;;1.33;1.23;;;;;;;11.10;57.42;100005.00;6104680;23;20410;-68
2024/02/25 10:51:24;;;;;;;1.07;0.87;;;;;;;11.20;56.43;100015.28;6097678;23;20986;-66
2024/02/25 10:53:54;;;;;;;1.57;1.43;;;;;;;11.17;56.28;100010.34;6097287;23;20370;-67
2024/02/25 10:56:23;;;;;;;1.20;0.77;;;;;;;11.20;56.18;100010.72;6096605;23;20390;-65
2024/02/25 10:58:54;;;;;;;2.63;1.10;;;;;;;11.29;55.48;99993.09;6097966;23;20415;-67
2024/02/25 11:01:25;;;;;;;2.07;1.00;;;;;;;11.44;55.29;99997.28;6096366;23;20849;-65
2024/02/25 11:03:56;;;;;;;1.50;0.80;;;;;;;11.55;55.11;99993.78;6096804;23;20431;-66
2024/02/25 11:06:32;;;;;;;1.40;0.90;;;;;;;11.52;53.84;99995.06;6096625;23;20376;-68
2024/02/25 11:09:10;;;;;;;1.20;0.80;;;;;;;11.47;53.60;99994.13;6096425;23;20421;-65
2024/02/25 11:11:39;;;;;;;1.40;1.03;;;;;;;11.59;53.26;99987.69;6096443;23;20426;-67
2024/02/25 11:14:11;;;;;;;1.47;1.00;;;;;;;11.83;51.97;99977.75;6096500;23;20399;-67
2024/02/25 11:16:47;;;;;;;1.70;0.90;;;;;;;11.80;51.20;99974.69;6096378;23;20351;-68
2024/02/25 11:19:22;;;;;;;1.30;0.77;;;;;;;11.74;50.72;99973.72;6096118;23;20514;-68
2024/02/25 11:21:54;;;;;;;2.00;1.30;;;;;;;11.72;50.52;99976.66;6096373;23;20407;-65
2024/02/25 11:24:47;;;;;;;1.17;0.60;;;;;;;11.71;49.76;99969.56;6096015;23;20399;-67
2024/02/25 11:27:18;;;;;;;2.07;1.77;;;;;;;11.73;49.89;99970.19;6096866;23;20372;-67
2024/02/25 11:29:47;;;;;;;2.17;1.23;;;;;;;11.94;48.86;99973.44;6098009;23;20931;-66
2024/02/25 11:32:32;;;;;;;1.07;0.70;;;;;;;12.25;48.84;99969.56;6096630;23;20372;-67
2024/02/25 11:35:04;;;;;;;3.27;0.83;;;;;;;12.12;46.83;99962.47;6095771;23;20374;-67
2024/02/25 11:37:33;;;;;;;1.10;0.77;;;;;;;12.14;47.74;99949.53;6095843;23;20372;-67
2024/02/25 11:40:04;;;;;;;1.47;0.97;;;;;;;12.14;47.61;99955.78;6095268;23;20478;-68
2024/02/25 11:42:33;;;;;;;1.10;0.73;;;;;;;12.25;47.18;99947.88;6096203;23;20368;-67
2024/02/25 11:45:02;;;;;;;1.10;0.60;;;;;;;12.43;47.38;99945.03;6096122;23;20388;-65